Time;durP1;ratioP1;P1;durP2;ratioP2;P2;SDS_P1;SDS_P2;PMS_P1;PMS_P2;Temp;Humidity;BMP_temperature;BMP_pressure;BME280_temperature;BME280_humidity;BME280_pressure;Samples;Min_cycle;Max_cycle;Signal;HPM_P1;HPM_P2
2021/04/06 00:01:52;;;;;;;6.27;3.87;;;;;;;;;;5074559;28;20164;-79
2021/04/06 00:04:19;;;;;;;5.77;3.50;;;;;;;;;;5074355;28;20235;-79
2021/04/06 00:06:47;;;;;;;4.30;3.53;;;;;;;;;;5074378;28;20254;-79
2021/04/06 00:09:13;;;;;;;4.80;3.40;;;;;;;;;;5074394;28;20256;-78
2021/04/06 00:11:41;;;;;;;3.47;3.13;;;;;;;;;;5074272;28;20167;-78
2021/04/06 00:14:07;;;;;;;6.57;3.33;;;;;;;;;;5074283;28;20273;-78
2021/04/06 00:16:32;;;;;;;4.30;3.30;;;;;;;;;;5073831;28;20306;-78
2021/04/06 00:18:58;;;;;;;4.83;3.50;;;;;;;;;;5074231;28;20621;-78
2021/04/06 00:21:24;;;;;;;4.20;3.03;;;;;;;;;;5074461;28;20182;-79
2021/04/06 00:23:51;;;;;;;3.93;3.37;;;;;;;;;;5074000;28;20567;-79
2021/04/06 00:26:16;;;;;;;5.33;3.40;;;;;;;;;;5073788;28;20205;-78
2021/04/06 00:28:42;;;;;;;5.07;3.53;;;;;;;;;;5074107;28;20170;-78
2021/04/06 00:31:08;;;;;;;4.50;3.57;;;;;;;;;;5074070;28;20521;-78
2021/04/06 00:33:37;;;;;;;4.33;3.40;;;;;;;;;;5073772;28;20172;-79
2021/04/06 00:36:03;;;;;;;5.50;3.60;;;;;;;;;;5073867;28;20202;-79
2021/04/06 00:38:39;;;;;;;4.53;3.50;;;;;;;;;;5073989;28;20175;-78
2021/04/06 00:41:14;;;;;;;4.57;3.67;;;;;;;;;;5074226;28;20532;-79
2021/04/06 00:43:43;;;;;;;3.80;3.40;;;;;;;;;;5074263;28;20178;-79
2021/04/06 00:46:23;;;;;;;5.70;4.70;;;;;;;;;;5073886;28;20174;-79
2021/04/06 00:48:50;;;;;;;5.30;3.90;;;;;;;;;;5074073;28;20194;-79
2021/04/06 00:51:18;;;;;;;6.53;4.87;;;;;;;;;;5074570;28;20175;-79
2021/04/06 00:53:58;;;;;;;5.57;4.20;;;;;;;;;;5073789;28;20178;-79
2021/04/06 00:56:33;;;;;;;6.87;3.90;;;;;;;;;;5073694;28;20220;-79
2021/04/06 00:59:24;;;;;;;6.13;4.10;;;;;;;;;;5074039;28;20170;-79
2021/04/06 01:01:56;;;;;;;7.97;3.77;;;;;;;;;;5073475;28;20187;-79
2021/04/06 01:04:23;;;;;;;4.37;3.70;;;;;;;;;;5073320;28;20195;-79
2021/04/06 01:06:53;;;;;;;5.47;3.83;;;;;;;;;;5073933;28;20240;-79
2021/04/06 01:09:27;;;;;;;4.13;3.70;;;;;;;;;;5073599;28;20163;-79
2021/04/06 01:11:53;;;;;;;5.70;4.63;;;;;;;;;;5073161;28;20159;-79
2021/04/06 01:14:19;;;;;;;7.17;4.03;;;;;;;;;;5074279;28;20610;-79
2021/04/06 01:16:45;;;;;;;7.37;4.10;;;;;;;;;;5073924;28;20669;-79
2021/04/06 01:19:10;;;;;;;6.90;4.00;;;;;;;;;;5073301;28;20178;-79
2021/04/06 01:21:36;;;;;;;5.60;4.17;;;;;;;;;;5073276;28;20182;-79
2021/04/06 01:24:06;;;;;;;4.90;4.40;;;;;;;;;;5073479;28;20171;-79
2021/04/06 01:26:32;;;;;;;7.03;4.50;;;;;;;;;;5073789;28;20241;-79
2021/04/06 01:28:57;;;;;;;5.60;4.27;;;;;;;;;;5072470;28;20590;-80
2021/04/06 01:31:24;;;;;;;7.03;4.47;;;;;;;;;;5073186;28;20195;-79
2021/04/06 01:33:49;;;;;;;7.23;4.27;;;;;;;;;;5073239;28;20630;-80
2021/04/06 01:36:15;;;;;;;5.77;4.10;;;;;;;;;;5073409;28;20210;-80
2021/04/06 01:38:40;;;;;;;6.17;4.60;;;;;;;;;;5077499;28;20289;-80
2021/04/06 01:41:06;;;;;;;5.37;4.23;;;;;;;;;;5077213;28;20172;-79
2021/04/06 01:43:32;;;;;;;5.97;4.70;;;;;;;;;;5077145;28;20618;-80
2021/04/06 01:46:06;;;;;;;7.33;5.40;;;;;;;;;;5077118;28;20178;-79
2021/04/06 01:48:33;;;;;;;6.20;5.00;;;;;;;;;;5077014;28;20198;-79
2021/04/06 01:50:58;;;;;;;7.93;5.37;;;;;;;;;;5077278;28;20167;-79
2021/04/06 01:53:24;;;;;;;10.37;5.30;;;;;;;;;;5075716;28;20517;-79
2021/04/06 01:55:52;;;;;;;8.93;4.33;;;;;;;;;;5076851;28;20205;-79
2021/04/06 01:58:18;;;;;;;7.93;4.77;;;;;;;;;;5076861;28;20171;-79
2021/04/06 02:00:58;;;;;;;6.43;4.70;;;;;;;;;;5076569;28;20533;-79
2021/04/06 02:03:28;;;;;;;5.70;4.53;;;;;;;;;;5076655;28;20286;-79
2021/04/06 02:05:54;;;;;;;6.70;4.53;;;;;;;;;;5076417;28;20181;-80
2021/04/06 02:08:20;;;;;;;6.63;4.80;;;;;;;;;;5076730;28;20168;-79
2021/04/06 02:10:46;;;;;;;8.07;4.47;;;;;;;;;;5077165;28;20175;-79
2021/04/06 02:13:12;;;;;;;7.17;4.40;;;;;;;;;;5076675;28;20277;-79
2021/04/06 02:15:39;;;;;;;6.63;4.70;;;;;;;;;;5076966;28;20321;-79
2021/04/06 02:18:04;;;;;;;8.30;4.83;;;;;;;;;;5076240;28;20172;-79
2021/04/06 02:20:29;;;;;;;6.33;5.07;;;;;;;;;;5076692;28;20167;-79
2021/04/06 02:22:58;;;;;;;6.10;4.90;;;;;;;;;;5076357;28;20253;-79
2021/04/06 02:25:24;;;;;;;7.50;5.40;;;;;;;;;;5076365;28;20233;-79
2021/04/06 02:27:49;;;;;;;7.90;5.07;;;;;;;;;;5076403;28;20171;-79
2021/04/06 02:30:15;;;;;;;7.13;5.00;;;;;;;;;;5076455;28;20163;-79
2021/04/06 02:32:40;;;;;;;5.87;4.77;;;;;;;;;;5076216;28;20226;-79
2021/04/06 02:35:07;;;;;;;6.67;4.87;;;;;;;;;;5076742;28;20510;-79
2021/04/06 02:37:36;;;;;;;5.87;4.67;;;;;;;;;;5075978;28;20285;-79
2021/04/06 02:40:05;;;;;;;6.27;4.60;;;;;;;;;;5076707;28;20686;-79
2021/04/06 02:42:35;;;;;;;6.37;4.47;;;;;;;;;;5075246;28;20266;-79
2021/04/06 02:45:15;;;;;;;5.43;4.37;;;;;;;;;;5076308;28;20172;-79
2021/04/06 02:47:43;;;;;;;7.47;4.87;;;;;;;;;;5075571;28;20167;-79
2021/04/06 02:50:09;;;;;;;8.00;4.80;;;;;;;;;;5075516;28;20217;-79
2021/04/06 02:52:36;;;;;;;9.27;4.57;;;;;;;;;;5075504;28;20254;-79
2021/04/06 02:55:02;;;;;;;6.77;4.50;;;;;;;;;;5075799;28;20558;-79
2021/04/06 02:57:30;;;;;;;6.10;4.40;;;;;;;;;;5075722;28;20191;-79
2021/04/06 02:59:55;;;;;;;6.87;4.40;;;;;;;;;;5075983;28;20305;-80
2021/04/06 03:02:20;;;;;;;5.67;4.43;;;;;;;;;;5075340;28;20229;-79
2021/04/06 03:04:47;;;;;;;5.97;4.57;;;;;;;;;;5075962;28;20717;-79
2021/04/06 03:07:19;;;;;;;4.77;4.30;;;;;;;;;;5075908;28;20175;-79
2021/04/06 03:09:54;;;;;;;6.27;4.20;;;;;;;;;;5075542;28;20636;-79
2021/04/06 03:12:20;;;;;;;5.47;4.60;;;;;;;;;;5075693;28;20225;-79
2021/04/06 03:14:47;;;;;;;4.90;4.03;;;;;;;;;;5075146;28;20167;-79
2021/04/06 03:17:13;;;;;;;7.30;4.20;;;;;;;;;;5075318;28;20214;-79
2021/04/06 03:19:38;;;;;;;9.23;4.70;;;;;;;;;;5074021;28;20575;-79
2021/04/06 03:22:05;;;;;;;9.83;4.37;;;;;;;;;;5075209;28;20163;-79
2021/04/06 03:24:30;;;;;;;6.83;4.20;;;;;;;;;;5075369;28;20194;-79
2021/04/06 03:27:05;;;;;;;4.63;3.93;;;;;;;;;;5075269;28;20618;-79
2021/04/06 03:29:31;;;;;;;6.70;4.50;;;;;;;;;;5074984;28;20162;-79
2021/04/06 03:31:57;;;;;;;7.43;4.10;;;;;;;;;;5074816;28;20172;-80
2021/04/06 03:34:28;;;;;;;6.37;4.27;;;;;;;;;;5075016;28;20629;-79
2021/04/06 03:36:54;;;;;;;6.87;4.70;;;;;;;;;;5074705;28;20253;-79
2021/04/06 03:39:19;;;;;;;10.27;5.30;;;;;;;;;;5074662;28;20622;-80
2021/04/06 03:41:45;;;;;;;7.57;4.60;;;;;;;;;;5075246;28;20167;-79
2021/04/06 03:44:11;;;;;;;5.93;4.67;;;;;;;;;;5074632;28;20187;-80
2021/04/06 03:46:38;;;;;;;7.87;5.20;;;;;;;;;;5074524;28;20175;-80
2021/04/06 03:49:13;;;;;;;9.07;6.00;;;;;;;;;;5074670;28;20179;-80
2021/04/06 03:51:45;;;;;;;9.40;4.53;;;;;;;;;;5074689;28;20167;-80
2021/04/06 03:54:27;;;;;;;7.03;4.67;;;;;;;;;;5074952;28;20547;-80
2021/04/06 03:56:53;;;;;;;8.13;5.37;;;;;;;;;;5074375;28;20221;-80
2021/04/06 03:59:20;;;;;;;8.23;4.87;;;;;;;;;;5074019;28;20618;-79
2021/04/06 04:01:46;;;;;;;6.80;5.10;;;;;;;;;;5074295;28;20529;-79
2021/04/06 04:04:12;;;;;;;7.23;4.70;;;;;;;;;;5074537;28;20253;-79
2021/04/06 04:06:37;;;;;;;7.07;4.83;;;;;;;;;;5074134;28;20179;-80
2021/04/06 04:09:02;;;;;;;5.07;3.90;;;;;;;;;;5074604;28;20163;-80
2021/04/06 04:11:27;;;;;;;5.80;4.37;;;;;;;;;;5074047;28;20174;-80
2021/04/06 04:13:53;;;;;;;8.03;4.60;;;;;;;;;;5074819;28;20227;-80
2021/04/06 04:16:18;;;;;;;7.10;5.30;;;;;;;;;;5073963;28;20557;-80
2021/04/06 04:18:44;;;;;;;13.37;7.27;;;;;;;;;;5074535;28;20174;-80
2021/04/06 04:21:12;;;;;;;14.33;7.20;;;;;;;;;;5073915;28;20569;-80
2021/04/06 04:23:38;;;;;;;15.47;8.70;;;;;;;;;;5074111;28;20179;-80
2021/04/06 04:26:03;;;;;;;13.47;8.73;;;;;;;;;;5074113;28;20174;-80
2021/04/06 04:28:29;;;;;;;13.40;8.63;;;;;;;;;;5074027;28;20253;-80
2021/04/06 04:30:54;;;;;;;9.90;6.83;;;;;;;;;;5073715;28;20172;-80
2021/04/06 04:33:19;;;;;;;9.70;6.40;;;;;;;;;;5073795;28;20167;-80
2021/04/06 04:35:45;;;;;;;11.73;7.50;;;;;;;;;;5073991;28;20615;-81
2021/04/06 04:38:10;;;;;;;14.90;8.33;;;;;;;;;;5074325;28;20167;-80
2021/04/06 04:40:38;;;;;;;15.17;9.87;;;;;;;;;;5074720;28;20193;-80
2021/04/06 04:43:03;;;;;;;16.07;9.23;;;;;;;;;;5073642;28;20630;-80
2021/04/06 04:45:29;;;;;;;11.80;6.33;;;;;;;;;;5073908;28;20182;-80
2021/04/06 04:47:54;;;;;;;7.37;5.30;;;;;;;;;;5072588;28;20171;-80
2021/04/06 04:50:20;;;;;;;9.30;5.90;;;;;;;;;;5074349;28;20178;-80
2021/04/06 04:52:46;;;;;;;11.40;6.17;;;;;;;;;;5073908;28;20171;-80
2021/04/06 04:55:15;;;;;;;13.13;6.00;;;;;;;;;;5074118;28;20179;-80
2021/04/06 04:57:41;;;;;;;13.90;8.63;;;;;;;;;;5073996;28;20203;-80
2021/04/06 05:00:06;;;;;;;14.50;7.37;;;;;;;;;;5073970;28;20172;-80
2021/04/06 05:02:32;;;;;;;11.77;6.90;;;;;;;;;;5074040;28;20223;-80
2021/04/06 05:04:57;;;;;;;13.43;7.57;;;;;;;;;;5073673;28;20709;-80
2021/04/06 05:07:23;;;;;;;12.67;6.77;;;;;;;;;;5073649;28;20503;-80
2021/04/06 05:09:48;;;;;;;9.10;5.83;;;;;;;;;;5073650;28;20259;-79
2021/04/06 05:12:14;;;;;;;10.47;5.87;;;;;;;;;;5075063;28;20229;-79
2021/04/06 05:14:40;;;;;;;11.93;5.87;;;;;;;;;;5077815;28;20156;-79
2021/04/06 05:17:05;;;;;;;8.67;5.33;;;;;;;;;;5077853;28;20195;-80
2021/04/06 05:19:30;;;;;;;5.67;4.80;;;;;;;;;;5076342;28;20181;-80
2021/04/06 05:21:56;;;;;;;11.67;5.70;;;;;;;;;;5077281;28;20171;-79
2021/04/06 05:24:21;;;;;;;11.43;6.17;;;;;;;;;;5078382;28;20183;-80
2021/04/06 05:26:46;;;;;;;14.77;7.00;;;;;;;;;;5077913;28;20511;-79
2021/04/06 05:29:12;;;;;;;12.20;7.13;;;;;;;;;;5077297;28;20633;-79
2021/04/06 05:31:37;;;;;;;13.93;8.80;;;;;;;;;;5077412;28;20167;-79
2021/04/06 05:34:02;;;;;;;17.60;9.10;;;;;;;;;;5077051;28;20167;-80
2021/04/06 05:36:28;;;;;;;12.47;8.37;;;;;;;;;;5077422;28;20722;-79
2021/04/06 05:38:53;;;;;;;11.37;7.00;;;;;;;;;;5077833;28;20171;-79
2021/04/06 05:41:18;;;;;;;10.60;7.67;;;;;;;;;;5077007;28;20525;-79
2021/04/06 05:43:46;;;;;;;12.40;6.80;;;;;;;;;;5077405;28;20181;-79
2021/04/06 05:46:12;;;;;;;8.37;5.67;;;;;;;;;;5077053;28;20178;-79
2021/04/06 05:48:38;;;;;;;6.60;5.30;;;;;;;;;;5077226;28;20617;-79
2021/04/06 05:51:04;;;;;;;14.77;8.17;;;;;;;;;;5076945;28;20171;-79
2021/04/06 05:53:29;;;;;;;11.90;8.37;;;;;;;;;;5077404;28;20566;-80
2021/04/06 05:55:58;;;;;;;12.30;7.90;;;;;;;;;;5077058;28;20736;-79
2021/04/06 05:58:23;;;;;;;18.63;10.10;;;;;;;;;;5076844;28;20171;-79
2021/04/06 06:00:48;;;;;;;9.80;6.70;;;;;;;;;;5076654;28;20163;-79
2021/04/06 06:03:15;;;;;;;9.77;6.17;;;;;;;;;;5077023;28;20168;-79
2021/04/06 06:05:41;;;;;;;10.70;5.53;;;;;;;;;;5077318;28;20222;-79
2021/04/06 06:08:09;;;;;;;6.87;5.23;;;;;;;;;;5076453;28;20587;-79
2021/04/06 06:10:35;;;;;;;8.27;6.07;;;;;;;;;;5076420;28;20171;-80
2021/04/06 06:13:20;;;;;;;10.03;6.87;;;;;;;;;;5076608;28;20225;-79
2021/04/06 06:16:14;;;;;;;17.30;9.57;;;;;;;;;;5076244;28;20207;-79
2021/04/06 06:18:53;;;;;;;12.70;7.13;;;;;;;;;;5076219;28;20643;-80
2021/04/06 06:21:19;;;;;;;10.90;6.80;;;;;;;;;;5076771;28;20232;-79
2021/04/06 06:23:44;;;;;;;11.07;7.27;;;;;;;;;;5076495;28;20171;-79
2021/04/06 06:26:10;;;;;;;12.27;7.40;;;;;;;;;;5076274;28;20597;-79
2021/04/06 06:28:36;;;;;;;19.00;9.10;;;;;;;;;;5076268;28;20164;-79
2021/04/06 06:31:02;;;;;;;14.07;6.63;;;;;;;;;;5076225;28;20171;-79
2021/04/06 06:33:28;;;;;;;12.33;7.80;;;;;;;;;;5076848;28;20514;-79
2021/04/06 06:36:02;;;;;;;10.57;7.40;;;;;;;;;;5076149;28;20205;-79
2021/04/06 06:38:30;;;;;;;10.40;7.87;;;;;;;;;;5076158;28;20240;-79
2021/04/06 06:40:57;;;;;;;10.80;7.80;;;;;;;;;;5076081;28;20229;-79
2021/04/06 06:43:23;;;;;;;7.70;6.13;;;;;;;;;;5076038;28;20175;-79
2021/04/06 06:45:49;;;;;;;10.17;5.93;;;;;;;;;;5075972;28;20179;-79
2021/04/06 06:48:27;;;;;;;13.50;8.13;;;;;;;;;;5075922;28;20174;-79
2021/04/06 06:50:53;;;;;;;145.20;48.67;;;;;;;;;;5076145;28;20259;-79
2021/04/06 06:53:30;;;;;;;62.33;32.40;;;;;;;;;;5075595;28;20195;-79
2021/04/06 06:55:56;;;;;;;35.57;22.53;;;;;;;;;;5075421;28;20621;-79
2021/04/06 06:58:28;;;;;;;13.60;8.90;;;;;;;;;;5075431;28;20202;-79
2021/04/06 07:00:54;;;;;;;19.13;12.40;;;;;;;;;;5076018;28;20163;-80
2021/04/06 07:03:19;;;;;;;27.27;20.47;;;;;;;;;;5075791;28;20225;-79
2021/04/06 07:05:45;;;;;;;29.20;20.93;;;;;;;;;;5075787;28;20171;-80
2021/04/06 07:08:10;;;;;;;22.10;15.80;;;;;;;;;;5075644;28;20179;-79
2021/04/06 07:10:39;;;;;;;22.40;13.53;;;;;;;;;;5075526;28;20167;-79
2021/04/06 07:13:06;;;;;;;29.80;17.80;;;;;;;;;;5074969;28;20233;-79
2021/04/06 07:15:34;;;;;;;15.63;10.77;;;;;;;;;;5075529;28;20250;-79
2021/04/06 07:18:06;;;;;;;17.97;11.67;;;;;;;;;;5075583;28;20266;-79
2021/04/06 07:20:34;;;;;;;17.87;11.27;;;;;;;;;;5075207;28;20171;-80
2021/04/06 07:23:02;;;;;;;21.10;14.97;;;;;;;;;;5075241;28;20169;-79
2021/04/06 07:25:27;;;;;;;31.67;17.23;;;;;;;;;;5076043;28;20254;-79
2021/04/06 07:27:53;;;;;;;35.63;19.10;;;;;;;;;;5075246;28;20674;-79
2021/04/06 07:30:18;;;;;;;58.83;26.23;;;;;;;;;;5074898;28;20207;-79
2021/04/06 07:32:44;;;;;;;20.37;12.33;;;;;;;;;;5075660;28;20167;-79
2021/04/06 07:35:10;;;;;;;17.47;8.80;;;;;;;;;;5074726;28;20510;-80
2021/04/06 07:37:43;;;;;;;14.00;9.50;;;;;;;;;;5075239;28;20657;-79
2021/04/06 07:40:10;;;;;;;17.23;9.50;;;;;;;;;;5075292;28;20155;-80
2021/04/06 07:42:38;;;;;;;60.97;29.00;;;;;;;;;;5073788;28;20175;-79
2021/04/06 07:45:05;;;;;;;38.17;18.77;;;;;;;;;;5074399;28;20254;-80
2021/04/06 07:47:38;;;;;;;33.87;15.37;;;;;;;;;;5074442;28;20197;-79
2021/04/06 07:50:04;;;;;;;22.83;12.10;;;;;;;;;;5074462;28;20175;-79
2021/04/06 07:52:30;;;;;;;32.90;17.53;;;;;;;;;;5074860;28;20578;-80
2021/04/06 07:54:55;;;;;;;23.00;12.37;;;;;;;;;;5074589;28;20258;-79
2021/04/06 07:57:40;;;;;;;16.60;11.00;;;;;;;;;;5074654;28;20206;-79
2021/04/06 08:00:05;;;;;;;22.23;11.97;;;;;;;;;;5075092;28;20598;-79
2021/04/06 08:02:31;;;;;;;12.43;6.73;;;;;;;;;;5074471;28;20205;-79
2021/04/06 08:04:57;;;;;;;21.97;10.43;;;;;;;;;;5074342;28;20521;-79
2021/04/06 08:07:36;;;;;;;17.73;11.00;;;;;;;;;;5074614;28;20262;-80
2021/04/06 08:10:21;;;;;;;26.63;12.60;;;;;;;;;;5074926;28;20155;-80
2021/04/06 08:12:47;;;;;;;22.23;12.00;;;;;;;;;;5074008;28;20585;-80
2021/04/06 08:15:16;;;;;;;26.10;15.00;;;;;;;;;;5074545;28;20171;-80
2021/04/06 08:17:41;;;;;;;17.90;10.07;;;;;;;;;;5074125;28;20202;-80
2021/04/06 08:20:22;;;;;;;19.50;11.57;;;;;;;;;;5067875;28;20179;-80
2021/04/06 08:23:20;;;;;;;33.33;17.33;;;;;;;;;;5056680;28;20186;-80
2021/04/06 08:25:46;;;;;;;18.10;9.40;;;;;;;;;;5056804;28;20206;-80
2021/04/06 08:28:30;;;;;;;21.77;10.67;;;;;;;;;;5065089;28;20182;-81
2021/04/06 08:31:14;;;;;;;20.07;10.87;;;;;;;;;;5073976;28;20285;-80
2021/04/06 08:33:40;;;;;;;22.73;10.70;;;;;;;;;;5057056;28;20183;-80
2021/04/06 08:36:05;;;;;;;23.17;13.00;;;;;;;;;;5053895;28;20200;-80
2021/04/06 08:38:33;;;;;;;28.77;15.43;;;;;;;;;;5053947;28;20174;-80
2021/04/06 08:41:10;;;;;;;21.37;11.40;;;;;;;;;;5060697;28;20243;-80
2021/04/06 08:43:39;;;;;;;22.20;11.43;;;;;;;;;;5073917;28;20173;-80
2021/04/06 08:46:04;;;;;;;14.17;8.17;;;;;;;;;;5061427;28;20175;-80
2021/04/06 08:48:51;;;;;;;36.00;18.10;;;;;;;;;;5053377;28;20167;-80
2021/04/06 08:51:28;;;;;;;18.57;11.07;;;;;;;;;;5053728;28;20160;-80
2021/04/06 08:53:57;;;;;;;16.30;9.93;;;;;;;;;;5053549;28;20634;-80
2021/04/06 08:56:24;;;;;;;14.03;9.10;;;;;;;;;;5054068;28;20586;-80
2021/04/06 08:58:50;;;;;;;25.70;12.53;;;;;;;;;;5066435;28;20221;-80
2021/04/06 09:01:16;;;;;;;24.27;12.50;;;;;;;;;;5073388;28;20171;-80
2021/04/06 09:03:41;;;;;;;23.67;9.83;;;;;;;;;;5073643;28;20229;-80
2021/04/06 09:06:08;;;;;;;25.57;12.50;;;;;;;;;;5073810;28;20614;-80
2021/04/06 09:08:46;;;;;;;88.73;35.23;;;;;;;;;;5073388;28;20167;-80
2021/04/06 09:11:11;;;;;;;91.37;40.97;;;;;;;;;;5071581;28;20507;-81
2021/04/06 09:13:37;;;;;;;21.17;10.77;;;;;;;;;;5071877;28;20237;-80
2021/04/06 09:16:02;;;;;;;16.20;9.33;;;;;;;;;;5061183;28;20246;-80
2021/04/06 09:18:33;;;;;;;26.87;13.17;;;;;;;;;;5051660;28;20672;-81
2021/04/06 09:20:59;;;;;;;11.97;7.97;;;;;;;;;;5053271;28;20167;-81
2021/04/06 09:23:27;;;;;;;25.40;12.50;;;;;;;;;;5069558;28;20354;-80
2021/04/06 09:25:53;;;;;;;19.87;10.03;;;;;;;;;;5071957;28;20181;-81
2021/04/06 09:28:19;;;;;;;24.07;10.43;;;;;;;;;;5072854;28;20228;-80
2021/04/06 09:30:44;;;;;;;32.17;14.97;;;;;;;;;;5073436;28;20163;-80
2021/04/06 09:33:11;;;;;;;14.33;8.83;;;;;;;;;;5073291;28;20597;-79
2021/04/06 09:35:37;;;;;;;11.87;7.47;;;;;;;;;;5073162;28;20167;-80
2021/04/06 09:38:03;;;;;;;14.53;8.30;;;;;;;;;;5070254;28;20588;-80
2021/04/06 09:40:32;;;;;;;15.60;9.37;;;;;;;;;;5071744;28;20172;-81
2021/04/06 09:42:58;;;;;;;9.63;5.57;;;;;;;;;;5070125;28;20529;-81
2021/04/06 09:45:24;;;;;;;22.10;10.13;;;;;;;;;;5071350;28;20250;-80
2021/04/06 09:47:50;;;;;;;11.80;6.33;;;;;;;;;;5069551;28;20179;-80
2021/04/06 09:50:15;;;;;;;22.77;10.93;;;;;;;;;;5051189;28;20168;-80
2021/04/06 09:52:41;;;;;;;17.40;9.37;;;;;;;;;;5051707;28;20190;-80
2021/04/06 09:55:10;;;;;;;20.97;8.43;;;;;;;;;;5051342;28;20172;-80
2021/04/06 09:57:37;;;;;;;12.60;9.20;;;;;;;;;;5052961;28;20203;-80
2021/04/06 10:00:05;;;;;;;25.03;13.33;;;;;;;;;;5056535;28;20176;-80
2021/04/06 10:02:30;;;;;;;15.77;9.27;;;;;;;;;;5056267;28;20309;-80
2021/04/06 10:04:56;;;;;;;29.03;14.00;;;;;;;;;;5056596;28;20211;-80
2021/04/06 10:07:28;;;;;;;30.00;13.67;;;;;;;;;;5056235;28;20187;-80
2021/04/06 10:09:55;;;;;;;25.13;12.17;;;;;;;;;;5056442;28;20172;-80
2021/04/06 10:12:22;;;;;;;15.03;8.67;;;;;;;;;;5056517;28;20315;-80
2021/04/06 10:14:48;;;;;;;30.33;13.60;;;;;;;;;;5056452;28;20172;-80
2021/04/06 10:17:16;;;;;;;23.50;11.47;;;;;;;;;;5056462;28;20200;-80
2021/04/06 10:19:44;;;;;;;38.40;16.03;;;;;;;;;;5056307;28;20207;-80
2021/04/06 10:22:13;;;;;;;18.53;8.80;;;;;;;;;;5056441;28;20703;-80
2021/04/06 10:24:42;;;;;;;19.13;9.87;;;;;;;;;;5056877;28;20250;-80
2021/04/06 10:27:13;;;;;;;14.47;8.50;;;;;;;;;;5054708;28;20179;-80
2021/04/06 10:29:39;;;;;;;10.87;6.40;;;;;;;;;;5055493;28;20263;-80
2021/04/06 10:32:04;;;;;;;12.67;7.40;;;;;;;;;;5055975;28;20199;-80
2021/04/06 10:34:30;;;;;;;22.07;10.67;;;;;;;;;;5057723;28;20184;-80
2021/04/06 10:36:55;;;;;;;38.13;17.63;;;;;;;;;;5055883;28;20207;-80
2021/04/06 10:39:41;;;;;;;16.30;8.73;;;;;;;;;;5056143;28;20179;-79
2021/04/06 10:42:10;;;;;;;15.97;7.63;;;;;;;;;;5055727;28;20179;-80
2021/04/06 10:44:37;;;;;;;10.50;6.50;;;;;;;;;;5055823;28;20690;-80
2021/04/06 10:47:02;;;;;;;9.83;5.77;;;;;;;;;;5055798;28;20180;-80
2021/04/06 10:49:31;;;;;;;17.00;9.00;;;;;;;;;;5054728;28;20179;-80
2021/04/06 10:51:58;;;;;;;11.97;6.30;;;;;;;;;;5055569;28;20176;-80
2021/04/06 10:54:24;;;;;;;14.23;8.30;;;;;;;;;;5055737;28;20172;-78
2021/04/06 10:56:51;;;;;;;10.83;6.23;;;;;;;;;;5055937;28;20286;-79
2021/04/06 10:59:34;;;;;;;12.23;6.30;;;;;;;;;;5054968;28;20596;-80
2021/04/06 11:02:00;;;;;;;9.67;5.60;;;;;;;;;;5055186;28;20229;-79
2021/04/06 11:04:26;;;;;;;14.20;7.50;;;;;;;;;;5055547;28;20203;-79
2021/04/06 11:06:59;;;;;;;13.83;8.93;;;;;;;;;;5055270;28;20266;-80
2021/04/06 11:09:33;;;;;;;10.00;6.80;;;;;;;;;;5054478;28;20172;-80
2021/04/06 11:12:00;;;;;;;26.03;13.57;;;;;;;;;;5055774;28;20159;-79
2021/04/06 11:14:26;;;;;;;27.13;13.97;;;;;;;;;;5055721;28;20508;-79
2021/04/06 11:16:52;;;;;;;13.73;7.97;;;;;;;;;;5054995;28;20235;-80
2021/04/06 11:19:22;;;;;;;14.70;7.87;;;;;;;;;;5055316;28;20202;-79
2021/04/06 11:21:49;;;;;;;16.70;10.50;;;;;;;;;;5063904;28;20167;-80
2021/04/06 11:24:15;;;;;;;23.73;11.40;;;;;;;;;;5073812;28;20171;-80
2021/04/06 11:26:41;;;;;;;25.83;12.47;;;;;;;;;;5058583;28;20188;-80
2021/04/06 11:29:07;;;;;;;44.67;22.77;;;;;;;;;;5059919;28;20178;-80
2021/04/06 11:31:33;;;;;;;40.80;17.80;;;;;;;;;;5061932;28;20184;-80
2021/04/06 11:33:58;;;;;;;41.90;16.23;;;;;;;;;;5055016;28;20167;-80
2021/04/06 11:36:24;;;;;;;105.47;38.93;;;;;;;;;;5054997;28;20210;-80
2021/04/06 11:38:49;;;;;;;63.07;27.23;;;;;;;;;;5054622;28;20164;-80
2021/04/06 11:41:18;;;;;;;80.03;31.30;;;;;;;;;;5054979;28;20164;-80
2021/04/06 11:43:44;;;;;;;22.30;11.87;;;;;;;;;;5054794;28;20172;-80
2021/04/06 11:46:10;;;;;;;25.73;15.63;;;;;;;;;;5055051;28;20179;-79
2021/04/06 11:48:35;;;;;;;23.97;12.07;;;;;;;;;;5054393;28;20526;-79
2021/04/06 11:51:00;;;;;;;13.67;8.70;;;;;;;;;;5054695;28;20172;-80
2021/04/06 11:53:26;;;;;;;24.33;12.27;;;;;;;;;;5054356;28;20222;-79
2021/04/06 11:55:51;;;;;;;25.13;13.00;;;;;;;;;;5054355;28;20178;-79
2021/04/06 11:58:16;;;;;;;17.03;9.47;;;;;;;;;;5054617;28;20534;-80
2021/04/06 12:00:45;;;;;;;20.93;13.17;;;;;;;;;;5054244;28;20176;-79
2021/04/06 12:03:11;;;;;;;15.50;7.90;;;;;;;;;;5054465;28;20168;-79
2021/04/06 12:05:37;;;;;;;24.93;13.80;;;;;;;;;;5054046;28;20200;-80
2021/04/06 12:08:02;;;;;;;14.90;9.83;;;;;;;;;;5054079;28;20175;-80
2021/04/06 12:10:29;;;;;;;14.87;9.77;;;;;;;;;;5054437;28;20240;-79
2021/04/06 12:12:55;;;;;;;16.10;9.73;;;;;;;;;;5054194;28;20223;-79
2021/04/06 12:15:20;;;;;;;13.33;8.03;;;;;;;;;;5054142;28;20176;-79
2021/04/06 12:17:48;;;;;;;17.23;10.80;;;;;;;;;;5052514;28;20203;-80
2021/04/06 12:20:13;;;;;;;16.93;9.80;;;;;;;;;;5054033;28;20168;-79
2021/04/06 12:22:39;;;;;;;18.43;10.93;;;;;;;;;;5054176;28;20233;-80
2021/04/06 12:25:04;;;;;;;15.53;8.20;;;;;;;;;;5054223;28;20177;-80
2021/04/06 12:27:30;;;;;;;11.83;7.53;;;;;;;;;;5053956;28;20263;-79
2021/04/06 12:29:55;;;;;;;13.20;7.60;;;;;;;;;;5053653;28;20634;-80
2021/04/06 12:32:20;;;;;;;11.10;7.00;;;;;;;;;;5053709;28;20164;-80
2021/04/06 12:34:46;;;;;;;13.83;7.50;;;;;;;;;;5053741;28;20179;-80
2021/04/06 12:37:11;;;;;;;14.93;8.17;;;;;;;;;;5054006;28;20612;-80
2021/04/06 12:39:36;;;;;;;12.43;7.67;;;;;;;;;;5053766;28;20611;-80
2021/04/06 12:42:02;;;;;;;12.73;8.37;;;;;;;;;;5053512;28;20195;-80
2021/04/06 12:44:27;;;;;;;13.33;7.30;;;;;;;;;;5051974;28;20239;-80
2021/04/06 12:46:52;;;;;;;14.07;7.87;;;;;;;;;;5051580;28;20255;-80
2021/04/06 12:49:18;;;;;;;18.17;8.53;;;;;;;;;;5053212;28;20166;-79
2021/04/06 12:51:43;;;;;;;21.43;11.77;;;;;;;;;;5053464;28;20164;-80
2021/04/06 12:54:09;;;;;;;12.23;7.47;;;;;;;;;;5053629;28;20172;-80
2021/04/06 12:56:34;;;;;;;18.07;9.70;;;;;;;;;;5053650;28;20196;-80
2021/04/06 12:58:59;;;;;;;12.97;8.23;;;;;;;;;;5052380;28;20521;-80
2021/04/06 13:01:25;;;;;;;13.53;7.60;;;;;;;;;;5053628;28;20206;-80
2021/04/06 13:03:50;;;;;;;11.73;6.87;;;;;;;;;;5053591;28;20187;-80
2021/04/06 13:06:15;;;;;;;10.33;8.10;;;;;;;;;;5053609;28;20506;-80
2021/04/06 13:08:41;;;;;;;11.97;8.60;;;;;;;;;;5053677;28;20704;-80
2021/04/06 13:11:06;;;;;;;11.20;7.30;;;;;;;;;;5053458;28;20164;-80
2021/04/06 13:13:32;;;;;;;11.77;8.03;;;;;;;;;;5053792;28;20236;-80
2021/04/06 13:15:58;;;;;;;28.50;17.10;;;;;;;;;;5053422;28;20199;-80
2021/04/06 13:18:23;;;;;;;13.60;9.30;;;;;;;;;;5053130;28;20740;-80
2021/04/06 13:20:48;;;;;;;22.40;13.13;;;;;;;;;;5053530;28;20167;-80
2021/04/06 13:23:15;;;;;;;16.83;9.73;;;;;;;;;;5057302;28;20175;-81
2021/04/06 13:25:41;;;;;;;11.83;8.33;;;;;;;;;;5072388;28;20174;-80
2021/04/06 13:28:06;;;;;;;15.27;9.43;;;;;;;;;;5073043;28;20522;-81
2021/04/06 13:30:32;;;;;;;14.27;9.70;;;;;;;;;;5072775;28;20175;-80
2021/04/06 13:32:58;;;;;;;9.33;7.50;;;;;;;;;;5074290;28;20221;-80
2021/04/06 13:35:24;;;;;;;13.40;9.47;;;;;;;;;;5077322;28;20259;-80
2021/04/06 13:37:50;;;;;;;15.13;8.97;;;;;;;;;;5076830;28;20211;-80
2021/04/06 13:40:17;;;;;;;15.63;9.57;;;;;;;;;;5074603;28;20175;-80
2021/04/06 13:42:42;;;;;;;17.17;9.13;;;;;;;;;;5076410;28;20179;-80
2021/04/06 13:45:10;;;;;;;17.03;10.67;;;;;;;;;;5076805;28;20167;-80
2021/04/06 13:47:36;;;;;;;14.47;10.33;;;;;;;;;;5077297;28;20232;-80
2021/04/06 13:50:02;;;;;;;14.37;9.13;;;;;;;;;;5077071;28;20258;-80
2021/04/06 13:52:27;;;;;;;14.43;9.90;;;;;;;;;;5076504;28;20252;-80
2021/04/06 13:54:53;;;;;;;12.20;8.60;;;;;;;;;;5076231;28;20644;-80
2021/04/06 13:57:21;;;;;;;15.17;9.93;;;;;;;;;;5076248;28;20239;-80
2021/04/06 13:59:46;;;;;;;26.80;17.30;;;;;;;;;;5076844;28;20225;-80
2021/04/06 14:02:12;;;;;;;25.53;12.93;;;;;;;;;;5076625;28;20179;-80
2021/04/06 14:04:37;;;;;;;14.73;9.63;;;;;;;;;;5076631;28;20183;-79
2021/04/06 14:07:02;;;;;;;18.63;10.33;;;;;;;;;;5076454;28;20261;-79
2021/04/06 14:09:28;;;;;;;10.47;7.33;;;;;;;;;;5073394;28;20202;-79
2021/04/06 14:11:53;;;;;;;14.43;8.50;;;;;;;;;;5076181;28;20258;-80
2021/04/06 14:14:18;;;;;;;24.80;13.13;;;;;;;;;;5074798;28;20190;-80
2021/04/06 14:19:09;;;;;;;23.30;13.17;;;;;;;;;;5063620;28;20178;-81
2021/04/06 14:21:34;;;;;;;21.20;11.80;;;;;;;;;;5076956;28;20187;-80
2021/04/06 14:24:00;;;;;;;18.00;10.10;;;;;;;;;;5068620;28;20179;-80
2021/04/06 14:26:25;;;;;;;18.20;11.50;;;;;;;;;;5070126;28;20174;-80
2021/04/06 14:28:52;;;;;;;21.87;12.43;;;;;;;;;;5065976;28;20226;-80
2021/04/06 14:31:17;;;;;;;18.97;12.23;;;;;;;;;;5058036;28;20237;-80
2021/04/06 14:33:42;;;;;;;16.13;10.00;;;;;;;;;;5075440;28;20642;-80
2021/04/06 14:36:10;;;;;;;15.77;10.43;;;;;;;;;;5075819;28;20198;-80